Flight Track Log - Related Links

Times and Time Zones

All times are in EDT time to prevent confusion due to time zone crossing. See the SWA1114 flight status page for this flight to view local times or setup timezone preferences in your user account.

Time Position Orientation Groundspeed Altitude Reporting Facility
EDT Latitude Longitude Course Direction KTS MPH feet Rate Location/Type
Sat 05:21:34 PM 33.4333 -112.1000 270° West 210 242 3,800  Level Phoenix TRACON
Sat 05:22:03 PM 33.4347 -112.1289 273° West 210 242 5,100 2,769 Climbing Albuquerque Center
Sat 05:23:05 PM 33.4639 -112.1939 298° West 255 293 8,000 2,341 Climbing Albuquerque Center
Sat 05:24:06 PM 33.5056 -112.1278 53° Northeast 279 321 9,900 1,750 Climbing Albuquerque Center
Sat 05:24:41 PM 33.5167 -112.0667 78° East 334 384 10,800 2,360 Climbing Phoenix TRACON
Sat 05:25:35 PM 33.5500 -111.9500 71° East 362 417 13,400 2,684 Climbing Phoenix TRACON
Sat 05:26:35 PM 33.5667 -111.8333 80° East 380 437 15,900 2,147 Climbing Phoenix TRACON
Sat 05:27:10 PM 33.5797 -111.7814 73° East 380 437 16,800 2,041 Climbing Albuquerque Center
Sat 05:28:12 PM 33.6078 -111.6511 75° East 405 466 19,200 2,537 Climbing Albuquerque Center
Sat 05:29:13 PM 33.6414 -111.4922 76° East 415 478 22,000 2,439 Climbing Albuquerque Center
Sat 05:30:15 PM 33.6700 -111.3531 76° East 430 495 24,200 1,854 Climbing Albuquerque Center
Sat 05:31:16 PM 33.7078 -111.2139 72° East 443 510 25,800 1,475 Climbing Albuquerque Center
Sat 05:32:17 PM 33.7586 -111.0719 67° East 465 535 27,200 1,512 Climbing Albuquerque Center
Sat 05:33:19 PM 33.8094 -110.9244 67° East 477 549 28,900 1,561 Climbing Albuquerque Center
Sat 05:34:20 PM 33.8622 -110.7775 67° East 481 554 30,400 1,561 Climbing Albuquerque Center
Sat 05:35:22 PM 33.9150 -110.6275 67° East 485 558 32,100 1,268 Climbing Albuquerque Center
Sat 05:36:23 PM 33.9789 -110.4475 67° East 488 562 33,000 443 Climbing Albuquerque Center
Sat 05:37:24 PM 34.0319 -110.2947 67° East 491 565 33,000  Level Albuquerque Center
Sat 05:38:26 PM 34.0836 -110.1436 68° East 491 565 33,000  Level Albuquerque Center
Sat 05:39:27 PM 34.1342 -109.9978 67° East 489 563 33,000 639 Level Albuquerque Center
Sat 05:40:28 PM 34.1892 -109.8289 68° East 485 558 34,300 1,317 Climbing Albuquerque Center
Sat 05:41:30 PM 34.2300 -109.6836 71° East 481 554 35,700 1,122 Climbing Albuquerque Center
Sat 05:42:31 PM 34.2839 -109.5181 68° East 476 548 36,600 639 Climbing Albuquerque Center
Sat 05:43:32 PM 34.3333 -109.3764 67° East 477 549 37,000 197 Climbing Albuquerque Center
Sat 05:44:33 PM 34.3819 -109.2339 68° East 479 551 37,000  Level Albuquerque Center
Sat 05:45:35 PM 34.4381 -109.0694 67° East 476 548 37,000  Level Albuquerque Center
Sat 05:46:36 PM 34.4858 -108.9283 68° East 474 545 37,000  Level Albuquerque Center
Sat 05:47:37 PM 34.5408 -108.7639 68° East 473 544 37,000  Level Albuquerque Center
Sat 05:48:39 PM 34.5883 -108.6214 68° East 474 545 37,000  Level Albuquerque Center
Sat 05:49:40 PM 34.6400 -108.4650 68° East 472 543 37,000  Level Albuquerque Center
Sat 05:50:41 PM 34.6897 -108.3178 68° East 471 542 37,000  Level Albuquerque Center
Sat 05:51:43 PM 34.7372 -108.1700 69° East 472 543 37,000  Level Albuquerque Center
Sat 05:52:44 PM 34.7861 -108.0225 68° East 471 542 37,000  Level Albuquerque Center
Sat 05:53:45 PM 34.8364 -107.8711 68° East 468 539 37,000  Level Albuquerque Center
Sat 05:54:47 PM 34.8831 -107.7278 68° East 470 541 37,000  Level Albuquerque Center
Sat 05:55:48 PM 34.9300 -107.5792 69° East 470 541 37,000  Level Albuquerque Center
Sat 05:56:49 PM 34.9789 -107.4294 68° East 473 544 37,000  Level Albuquerque Center
Sat 05:57:50 PM 35.0256 -107.2794 69° East 473 544 37,000  Level Albuquerque Center
Sat 05:58:52 PM 35.0797 -107.1111 68° East 475 547 37,000  Level Albuquerque Center
Sat 05:59:54 PM 35.1328 -106.9442 69° East 473 544 37,000  Level Albuquerque Center
Sat 06:00:56 PM 35.1786 -106.8011 69° East 473 544 37,000  Level Albuquerque Center
Sat 06:01:57 PM 35.2236 -106.6581 69° East 473 544 37,000  Level Albuquerque Center
Sat 06:02:58 PM 35.2769 -106.4850 69° East 480 552 37,000  Level Albuquerque Center
Sat 06:03:59 PM 35.3228 -106.3350 69° East 474 545 37,000  Level Albuquerque Center
Sat 06:05:01 PM 35.3650 -106.1964 69° East 466 536 37,000  Level Albuquerque Center
Sat 06:06:02 PM 35.4161 -106.0361 69° East 473 544 37,000  Level Albuquerque Center
Sat 06:07:03 PM 35.4625 -105.8861 69° East 472 543 37,000  Level Albuquerque Center
Sat 06:08:04 PM 35.5031 -105.7419 71° East 468 539 37,000  Level Albuquerque Center
Sat 06:09:06 PM 35.5572 -105.5661 69° East 466 536 37,000  Level Albuquerque Center
Sat 06:10:07 PM 35.6014 -105.4178 70° East 459 528 37,000  Level Albuquerque Center
Sat 06:11:08 PM 35.6450 -105.2678 70° East 460 529 37,000  Level Albuquerque Center
Sat 06:12:09 PM 35.6911 -105.1150 70° East 463 533 37,000  Level Albuquerque Center
Sat 06:13:11 PM 35.7350 -104.9644 70° East 462 532 37,000  Level Albuquerque Center
Sat 06:14:12 PM 35.7808 -104.8119 70° East 466 536 37,000  Level Albuquerque Center
Sat 06:15:13 PM 35.8261 -104.6572 70° East 472 543 37,000  Level Albuquerque Center
Sat 06:16:14 PM 35.8703 -104.5042 70° East 471 542 37,000  Level Albuquerque Center
Sat 06:17:15 PM 35.9236 -104.3533 66° East 474 545 37,000  Level Albuquerque Center
Sat 06:18:17 PM 35.9911 -104.2097 60° Northeast 476 548 37,000  Level Albuquerque Center
Sat 06:19:18 PM 36.0567 -104.0608 61° Northeast 483 556 37,000  Level Albuquerque Center
Sat 06:20:19 PM 36.1072 -103.9067 68° East 480 552 37,000  Level Albuquerque Center
Sat 06:21:20 PM 36.1508 -103.7486 71° East 479 551 37,000  Level Albuquerque Center
Sat 06:22:21 PM 36.1939 -103.5922 71° East 476 548 37,000  Level Albuquerque Center
Sat 06:23:23 PM 36.2378 -103.4344 71° East 479 551 37,000  Level Albuquerque Center
Sat 06:24:24 PM 36.2808 -103.2747 71° East 483 556 37,000  Level Albuquerque Center
Sat 06:25:25 PM 36.3228 -103.1147 72° East 483 556 37,000  Level Albuquerque Center
Sat 06:26:26 PM 36.3658 -102.9558 71° East 482 555 37,000  Level Albuquerque Center
Sat 06:27:27 PM 36.4072 -102.8033 71° East 481 554 37,000  Level Albuquerque Center
Sat 06:28:28 PM 36.4497 -102.6467 71° East 480 552 37,000  Level Albuquerque Center
Sat 06:29:30 PM 36.4922 -102.4892 71° East 480 552 37,000  Level Albuquerque Center
Sat 06:30:31 PM 36.5419 -102.3017 72° East 478 550 37,000  Level Albuquerque Center
Sat 06:31:32 PM 36.5819 -102.1467 72° East 473 544 37,000  Level Albuquerque Center
Sat 06:32:33 PM 36.6225 -101.9922 72° East 473 544 37,000  Level Albuquerque Center
Sat 06:33:34 PM 36.6614 -101.8414 72° East 478 550 37,000 293 Level Albuquerque Center
Sat 06:34:36 PM 36.7072 -101.6658 72° East 478 550 37,600 706 Climbing Albuquerque Center
Sat 06:35:16 PM 36.7322 -101.5636 73° East 480 552 38,200 832 Climbing Kansas City Center
Sat 06:36:17 PM 36.7714 -101.4153 72° East 477 549 39,000 393 Climbing Kansas City Center
Sat 06:37:18 PM 36.8164 -101.2386 72° East 478 550 39,000  Level Kansas City Center
Sat 06:38:20 PM 36.8544 -101.0867 73° East 480 552 39,000  Level Kansas City Center
Sat 06:39:21 PM 36.8997 -100.9117 72° East 478 550 39,000  Level Kansas City Center
Sat 06:40:22 PM 36.9369 -100.7597 73° East 480 552 39,000  Level Kansas City Center
Sat 06:41:24 PM 36.9747 -100.6075 73° East 481 554 39,000  Level Kansas City Center
Sat 06:42:25 PM 37.0189 -100.4303 73° East 481 554 39,000  Level Kansas City Center
Sat 06:43:26 PM 37.0561 -100.2781 73° East 480 552 39,000  Level Kansas City Center
Sat 06:44:28 PM 37.0986 -100.1008 73° East 479 551 39,000  Level Kansas City Center
Sat 06:45:29 PM 37.1353 -99.9506 73° East 476 548 39,000  Level Kansas City Center
Sat 06:46:30 PM 37.1717 -99.7969 73° East 479 551 39,000  Level Kansas City Center
Sat 06:47:32 PM 37.2147 -99.6189 73° East 479 551 39,000  Level Kansas City Center
Sat 06:48:33 PM 37.2511 -99.4664 73° East 479 551 39,000  Level Kansas City Center
Sat 06:49:34 PM 37.2903 -99.2953 74° East 482 555 39,000  Level Kansas City Center
Sat 06:50:36 PM 37.3281 -99.1428 73° East 479 551 39,000  Level Kansas City Center
Sat 06:51:37 PM 37.3631 -98.9814 75° East 479 551 39,000  Level Kansas City Center
Sat 06:52:38 PM 37.4003 -98.8197 74° East 482 555 39,000  Level Kansas City Center
Sat 06:53:40 PM 37.4367 -98.6603 74° East 478 550 39,000  Level Kansas City Center
Sat 06:54:41 PM 37.4806 -98.4667 74° East 479 551 39,000  Level Kansas City Center
Sat 06:55:42 PM 37.5169 -98.3061 74° East 480 552 39,000  Level Kansas City Center
Sat 06:56:44 PM 37.5533 -98.1467 74° East 478 550 39,000  Level Kansas City Center
Sat 06:57:45 PM 37.5886 -97.9861 74° East 479 551 39,000  Level Kansas City Center
Sat 06:58:47 PM 37.6269 -97.8069 75° East 479 551 39,000  Level Kansas City Center
Sat 06:59:49 PM 37.6625 -97.6428 75° East 482 555 39,000  Level Kansas City Center
Sat 07:00:51 PM 37.6975 -97.4794 75° East 481 554 39,000  Level Kansas City Center
Sat 07:01:52 PM 37.7369 -97.3100 74° East 482 555 39,000  Level Kansas City Center
Sat 07:02:53 PM 37.7706 -97.1469 75° East 481 554 39,000  Level Kansas City Center
Sat 07:03:55 PM 37.8058 -96.9856 74° East 479 551 39,000  Level Kansas City Center
Sat 07:04:56 PM 37.8406 -96.8219 75° East 482 555 39,000  Level Kansas City Center
Sat 07:05:57 PM 37.8742 -96.6589 75° East 481 554 39,000  Level Kansas City Center
Sat 07:06:59 PM 37.9086 -96.4961 75° East 480 552 39,000  Level Kansas City Center
Sat 07:08:00 PM 37.9428 -96.3319 75° East 484 557 39,000  Level Kansas City Center
Sat 07:09:01 PM 37.9822 -96.1356 76° East 481 554 39,000  Level Kansas City Center
Sat 07:10:03 PM 38.0119 -95.9908 75° East 478 550 39,000  Level Kansas City Center
Sat 07:11:04 PM 38.0486 -95.8069 76° East 482 555 39,000  Level Kansas City Center
Sat 07:12:05 PM 38.0806 -95.6483 76° East 485 558 39,000  Level Kansas City Center
Sat 07:13:07 PM 38.1175 -95.4617 76° East 488 562 39,000  Level Kansas City Center
Sat 07:14:08 PM 38.1478 -95.3019 76° East 489 563 39,000  Level Kansas City Center
Sat 07:15:09 PM 38.1847 -95.1169 76° East 486 559 39,000  Level Kansas City Center
Sat 07:16:11 PM 38.2158 -94.9594 76° East 484 557 39,000  Level Kansas City Center
Sat 07:17:12 PM 38.2458 -94.7986 77° East 485 558 39,000  Level Kansas City Center
Sat 07:18:13 PM 38.2817 -94.6103 76° East 489 563 39,000  Level Kansas City Center
Sat 07:19:14 PM 38.3119 -94.4511 76° East 488 562 39,000  Level Kansas City Center
Sat 07:20:16 PM 38.3461 -94.2650 77° East 487 560 39,000  Level Kansas City Center
Sat 07:21:17 PM 38.3753 -94.1067 77° East 485 558 39,000  Level Kansas City Center
Sat 07:22:18 PM 38.4053 -93.9394 77° East 478 550 39,000  Level Kansas City Center
Sat 07:23:20 PM 38.4353 -93.7739 77° East 478 550 39,000  Level Kansas City Center
Sat 07:24:21 PM 38.4658 -93.6081 77° East 478 550 39,000  Level Kansas City Center
Sat 07:25:22 PM 38.4964 -93.4400 77° East 481 554 39,000  Level Kansas City Center
Sat 07:26:23 PM 38.5264 -93.2728 77° East 482 555 39,000  Level Kansas City Center
Sat 07:27:25 PM 38.5553 -93.1061 77° East 480 552 39,000  Level Kansas City Center
Sat 07:28:26 PM 38.5847 -92.9389 77° East 479 551 39,000  Level Kansas City Center
Sat 07:29:27 PM 38.6131 -92.7717 78° East 479 551 39,000  Level Kansas City Center
Sat 07:30:28 PM 38.6431 -92.6036 77° East 480 552 39,000  Level Kansas City Center
Sat 07:31:30 PM 38.6708 -92.4353 78° East 480 552 39,000  Level Kansas City Center
Sat 07:32:31 PM 38.7044 -92.2300 78° East 485 558 39,000  Level Kansas City Center
Sat 07:33:32 PM 38.7333 -92.0606 78° East 485 558 39,000  Level Kansas City Center
Sat 07:34:33 PM 38.7606 -91.8900 78° East 486 559 39,000  Level Kansas City Center
Sat 07:35:34 PM 38.7875 -91.7200 78° East 485 558 39,000  Level Kansas City Center
Sat 07:36:36 PM 38.8119 -91.5675 78° East 484 557 39,000  Level Kansas City Center
Sat 07:37:37 PM 38.8400 -91.3989 78° East 485 558 39,000  Level Kansas City Center
Sat 07:38:38 PM 38.8661 -91.2308 79° East 481 554 39,000  Level Kansas City Center
Sat 07:39:39 PM 38.8919 -91.0622 79° East 482 555 39,000  Level Kansas City Center
Sat 07:40:41 PM 38.9244 -90.8594 78° East 481 554 39,000  Level Kansas City Center
Sat 07:41:42 PM 38.9514 -90.6894 78° East 483 556 39,000  Level Kansas City Center
Sat 07:42:43 PM 38.9778 -90.5169 79° East 486 559 39,000  Level Kansas City Center
Sat 07:43:44 PM 39.0042 -90.3450 79° East 485 558 39,000  Level Kansas City Center
Sat 07:44:45 PM 39.0283 -90.1744 80° East 483 556 39,000  Level Kansas City Center
Sat 07:45:47 PM 39.0539 -90.0036 79° East 483 556 39,000  Level Kansas City Center
Sat 07:46:48 PM 39.0786 -89.8292 80° East 479 551 39,000  Level Kansas City Center
Sat 07:47:49 PM 39.1033 -89.6586 79° East 484 557 39,000  Level Kansas City Center
Sat 07:48:50 PM 39.1297 -89.4725 80° East 490 564 39,000  Level Kansas City Center
Sat 07:49:52 PM 39.1525 -89.3000 80° East 489 563 39,000  Level Kansas City Center
Sat 07:50:53 PM 39.1753 -89.1450 79° East 493 567 39,000  Level Kansas City Center
Sat 07:51:54 PM 39.1994 -88.9700 80° East 496 571 39,000  Level Kansas City Center
Sat 07:52:56 PM 39.2258 -88.7947 79° East 498 573 39,000  Level Kansas City Center
Sat 07:53:57 PM 39.2544 -88.5814 80° East 503 579 39,000  Level Kansas City Center
Sat 07:54:58 PM 39.2733 -88.4250 81° East 502 578 39,000  Level Kansas City Center
Sat 07:55:59 PM 39.2964 -88.2464 80° East 503 579 39,000  Level Kansas City Center
Sat 07:57:00 PM 39.3194 -88.0683 80° East 501 577 39,000  Level Kansas City Center
Sat 07:57:26 PM 39.3314 -87.9650 81° East 499 574 39,000  Level Indianapolis Center
Sat 07:58:26 PM 39.3544 -87.7875 80° East 501 577 39,000  Level Indianapolis Center
Sat 07:59:27 PM 39.3761 -87.6089 81° East 500 575 39,000  Level Indianapolis Center
Sat 08:00:28 PM 39.3994 -87.4328 80° East 499 574 39,000  Level Indianapolis Center
Sat 08:01:29 PM 39.4203 -87.2567 81° East 499 574 39,000  Level Indianapolis Center
Sat 08:02:30 PM 39.4408 -87.0806 81° East 499 574 39,000  Level Indianapolis Center
Sat 08:03:31 PM 39.4614 -86.9083 81° East 491 565 39,000  Level Indianapolis Center
Sat 08:04:31 PM 39.4819 -86.7344 81° East 491 565 39,000  Level Indianapolis Center
Sat 08:05:32 PM 39.5017 -86.5625 81° East 489 563 39,000  Level Indianapolis Center
Sat 08:06:33 PM 39.5211 -86.3911 82° East 488 562 39,000  Level Indianapolis Center
Sat 08:07:34 PM 39.5397 -86.2219 82° East 487 560 39,000  Level Indianapolis Center
Sat 08:08:35 PM 39.5594 -86.0514 81° East 487 560 39,000  Level Indianapolis Center
Sat 08:09:35 PM 39.5822 -85.8461 82° East 487 560 39,000  Level Indianapolis Center
Sat 08:10:36 PM 39.6006 -85.6722 82° East 489 563 39,000  Level Indianapolis Center
Sat 08:11:37 PM 39.6183 -85.4975 82° East 491 565 39,000  Level Indianapolis Center
Sat 08:12:38 PM 39.6375 -85.3233 82° East 490 564 39,000  Level Indianapolis Center
Sat 08:13:39 PM 39.6558 -85.1483 82° East 491 565 39,000  Level Indianapolis Center
Sat 08:14:39 PM 39.6739 -84.9742 82° East 490 564 39,000  Level Indianapolis Center
Sat 08:15:40 PM 39.6894 -84.8081 83° East 488 562 39,000  Level Indianapolis Center
Sat 08:16:41 PM 39.7100 -84.6017 83° East 490 564 39,000  Level Indianapolis Center
Sat 08:17:42 PM 39.7275 -84.4261 83° East 487 560 39,000  Level Indianapolis Center
Sat 08:18:43 PM 39.7439 -84.2503 83° East 487 560 39,000  Level Indianapolis Center
Sat 08:19:44 PM 39.7603 -84.0744 83° East 487 560 39,000  Level Indianapolis Center
Sat 08:20:44 PM 39.7764 -83.8989 83° East 486 559 39,000  Level Indianapolis Center
Sat 08:21:45 PM 39.7917 -83.7239 83° East 485 558 39,000  Level Indianapolis Center
Sat 08:22:46 PM 39.7961 -83.5431 88° East 489 563 39,000  Level Indianapolis Center
Sat 08:23:47 PM 39.8056 -83.3622 86° East 499 574 39,000  Level Indianapolis Center
Sat 08:24:48 PM 39.8092 -83.1936 88° East 497 572 39,000  Level Indianapolis Center
Sat 08:25:49 PM 39.8150 -83.0139 88° East 495 570 39,000  Level Indianapolis Center
Sat 08:26:49 PM 39.8194 -82.8350 88° East 493 567 39,000  Level Indianapolis Center
Sat 08:27:50 PM 39.8244 -82.6533 88° East 499 574 39,000  Level Indianapolis Center
Sat 08:28:51 PM 39.8292 -82.4725 88° East 498 573 39,000  Level Indianapolis Center
Sat 08:29:52 PM 39.8325 -82.2928 89° East 495 570 39,000  Level Indianapolis Center
Sat 08:30:53 PM 39.8361 -82.1131 88° East 493 567 39,000  Level Indianapolis Center
Sat 08:31:54 PM 39.8403 -81.9339 88° East 492 566 39,000  Level Indianapolis Center
Sat 08:32:54 PM 39.8442 -81.7550 88° East 491 565 39,000  Level Indianapolis Center
Sat 08:33:55 PM 39.8467 -81.5739 89° East 495 570 39,000  Level Indianapolis Center
Sat 08:34:56 PM 39.8489 -81.3922 89° East 486 559 39,000  Level Indianapolis Center
Sat 08:35:57 PM 39.8517 -81.2175 89° East 481 554 39,000  Level Indianapolis Center
Sat 08:36:58 PM 39.8533 -81.0433 89° East 481 554 39,000  Level Indianapolis Center
Sat 08:37:58 PM 39.8558 -80.8697 89° East 478 550 39,000  Level Indianapolis Center
Sat 08:38:59 PM 39.8564 -80.6947 90° East 481 554 39,000  Level Indianapolis Center
Sat 08:40:00 PM 39.8578 -80.5189 89° East 484 557 39,000  Level Indianapolis Center
Sat 08:41:01 PM 39.8594 -80.3456 89° East 480 552 39,000  Level Indianapolis Center
Sat 08:42:01 PM 39.8594 -80.1706 90° East 483 556 39,000 -50 Level Indianapolis Center
Sat 08:43:02 PM 39.8514 -79.9969 93° East 479 551 38,900 -1,190 Descending Indianapolis Center
Sat 08:44:07 PM 39.8131 -79.8028 104° East 476 548 36,500 -2,524 Descending Washington Center
Sat 08:45:08 PM 39.7775 -79.6225 104° East 497 572 33,600 -3,025 Descending Washington Center
Sat 08:46:08 PM 39.7378 -79.4369 106° East 517 595 30,400 -3,126 Descending Washington Center
Sat 08:47:07 PM 39.6997 -79.2594 106° East 522 601 27,400 -2,723 Descending Washington Center
Sat 08:48:07 PM 39.6611 -79.0822 106° East 517 595 25,000 -1,200 Descending Washington Center
Sat 08:49:07 PM 39.6186 -78.8889 106° East 507 583 25,000 -550 Level Washington Center
Sat 08:50:07 PM 39.5814 -78.7175 106° East 501 577 23,900 -1,721 Descending Washington Center
Sat 08:51:09 PM 39.5439 -78.5544 107° East 489 563 21,500 -2,361 Descending Washington Center
Sat 08:52:09 PM 39.5081 -78.3944 106° East 476 548 19,100 -2,390 Descending Washington Center
Sat 08:53:07 PM 39.4761 -78.2453 105° East 450 518 16,800 -2,017 Descending Washington Center
Sat 08:54:08 PM 39.4522 -78.0992 102° East 431 496 15,100 -885 Descending Washington Center
Sat 08:55:09 PM 39.4508 -77.9567 91° East 411 473 15,000  Descending Washington Center
Sat 08:56:09 PM 39.4494 -77.8142 91° East 401 461 15,100 50 Climbing Washington Center
Sat 08:57:09 PM 39.4456 -77.6744 92° East 396 456 15,100 -763 Level Washington Center
Sat 08:58:07 PM 39.4458 -77.5344 90° East 391 450 13,600 -1,950 Descending Washington Center
Sat 08:59:09 PM 39.4439 -77.3975 91° East 386 444 11,200 -1,923 Descending Washington Center
Sat 08:59:25 PM 39.4500 -77.3500 81° East 371 427 11,100 -158 Descending Potomac TRACON
Sat 09:00:25 PM 39.4500 -77.2333 90° East 359 413 11,000 -263 Descending Potomac TRACON
Sat 09:01:19 PM 39.4500 -77.1167 90° East 352 405 10,600 -694 Descending Potomac TRACON
Sat 09:02:26 PM 39.4333 -76.9833 99° East 317 365 9,600 -1,087 Descending Potomac TRACON
Sat 09:03:26 PM 39.4167 -76.8833 102° East 298 343 8,300 -1,450 Descending Potomac TRACON
Sat 09:04:26 PM 39.3833 -76.7833 113° Southeast 298 343 6,700 -1,550 Descending Potomac TRACON
Sat 09:05:26 PM 39.3500 -76.7000 117° Southeast 303 349 5,200 -850 Descending Potomac TRACON
Sat 09:06:26 PM 39.2833 -76.6333 142° Southeast 300 345 5,000 -737 Descending Potomac TRACON
Sat 09:07:20 PM 39.2333 -76.5667 134° Southeast 300 345 3,800 -1,053 Descending Potomac TRACON
Sat 09:08:20 PM 39.1667 -76.5167 150° Southeast 285 328 3,000 -700 Descending Potomac TRACON
Sat 09:09:20 PM 39.1167 -76.5500 207° Southwest 201 231 2,400 -800 Descending Potomac TRACON
Sat 09:10:20 PM 39.1167 -76.6000 270° West 150 173 1,400 -800 Descending Potomac TRACON
Sat 09:11:20 PM 39.1333 -76.6333 303° West 121 139 800 -600 Descending Potomac TRACON
Sat 09:13:00 PM 39.1667 -76.6667 270° West  Level FlightAware Approximate
Sat 09:20:00 PM 39.1754 -76.6683 270° West  Level Estimated
Sat 09:21:00 PM 39.1754 -76.6683 270° West  Level Estimated

Login

Don't have an account? Register now (free) for customized features, flight alerts, and more!